KRKR/RKR METAR and TAF weather

Enter ICAO airport designator
Station Type Date Time Source
KRKR METAR 2019/06/19 03:15 UTC NOAA

KRKR 190315Z AUTO 00000KT 10SM CLR 23/22 A2983 RMK AO2


Station Type Date Time Source
KRKR Decoded METAR 2019/06/19 03:15 UTC NOAA

Poteau, Robert S Kerr Airport, OK, United States (KRKR) 35-01-18N 094-37-17W
Jun 18, 2019 - 11:15 PM EDT / 2019.06.19 0315 UTC
Wind: Calm:0
Visibility: 10 mile(s):0
Sky conditions: clear
Temperature: 73 F (23 C)
Dew Point: 71 F (22 C)
Relative Humidity: 94%
Pressure (altimeter): 29.83 in. Hg (1010 hPa)
ob: KRKR 190315Z AUTO 00000KT 10SM CLR 23/22 A2983 RMK AO2
cycle: 3

Station Type Date Time Source
KRKR TAF UTC NOAA

Error!

Example: see airport list